Fulton, Missouri
Current Conditions -  °F | °C
As of 11:30 AM on Thursday 18 Dec 2014 (Local Time) from KCOU Reporting Station
Light Snow Light Snow  
Wind Chill: -4°   Ceiling: 800
Heat Index:   Visibility: 1.7mi
Dew Point: -2°   Wind: 7mph
Humidity: 88%   Direction: 90°E
Pressure: 30.24"   Gusts: NA
Location:  38.85°N, 91.95°W
Report Text: KCOU 181730Z 09006KT 1 3/4SM -SN BR OVC008 00/M02 A3024 RMK AO2 SNB21 CIG 006V009 P0000 T00001017
Loading
Personal Weather Stations






























Interactive Weather Map New forecast layout! Learn more

10-Day Weather Forecast

Advertisements
Track Severe Weather on mobile